sensor_id;sensor_type;location;lat;lon;timestamp;pressure;altitude;pressure_sealevel;temperature;humidity
48216;BME280;34005;48.844;10.098;2022-07-12T00:00:51;97366.78;;;17.07;64.72
48216;BME280;34005;48.844;10.098;2022-07-12T00:03:20;97369.03;;;17.10;64.61
48216;BME280;34005;48.844;10.098;2022-07-12T00:05:48;97362.09;;;17.09;64.10
48216;BME280;34005;48.844;10.098;2022-07-12T00:08:15;97373.88;;;17.06;64.01
48216;BME280;34005;48.844;10.098;2022-07-12T00:10:43;97370.63;;;17.04;63.96
48216;BME280;34005;48.844;10.098;2022-07-12T00:13:11;97369.41;;;17.07;64.52
48216;BME280;34005;48.844;10.098;2022-07-12T00:15:38;97364.56;;;17.11;64.32
48216;BME280;34005;48.844;10.098;2022-07-12T00:18:06;97362.53;;;17.13;64.28
48216;BME280;34005;48.844;10.098;2022-07-12T00:20:35;97365.16;;;17.13;64.34
48216;BME280;34005;48.844;10.098;2022-07-12T00:23:04;97366.56;;;17.15;64.31
48216;BME280;34005;48.844;10.098;2022-07-12T00:25:31;97359.28;;;17.17;64.28
48216;BME280;34005;48.844;10.098;2022-07-12T00:27:59;97366.56;;;17.22;64.66
48216;BME280;34005;48.844;10.098;2022-07-12T00:30:26;97370.59;;;17.24;64.28
48216;BME280;34005;48.844;10.098;2022-07-12T00:32:54;97369.38;;;17.27;64.05
48216;BME280;34005;48.844;10.098;2022-07-12T00:35:21;97367.16;;;17.30;64.49
48216;BME280;34005;48.844;10.098;2022-07-12T00:37:50;97371.81;;;17.35;65.27
48216;BME280;34005;48.844;10.098;2022-07-12T00:40:18;97364.94;;;17.34;64.26
48216;BME280;34005;48.844;10.098;2022-07-12T00:42:45;97366.13;;;17.32;64.16
48216;BME280;34005;48.844;10.098;2022-07-12T00:45:14;97363.91;;;17.28;64.08
48216;BME280;34005;48.844;10.098;2022-07-12T00:47:43;97365.75;;;17.28;64.31
48216;BME280;34005;48.844;10.098;2022-07-12T00:50:13;97365.34;;;17.24;64.40
48216;BME280;34005;48.844;10.098;2022-07-12T00:52:42;97370.44;;;17.19;64.27
48216;BME280;34005;48.844;10.098;2022-07-12T00:55:12;97363.75;;;17.17;64.73
48216;BME280;34005;48.844;10.098;2022-07-12T00:57:40;97363.53;;;17.12;64.63
48216;BME280;34005;48.844;10.098;2022-07-12T01:00:12;97353.59;;;17.07;64.95
48216;BME280;34005;48.844;10.098;2022-07-12T01:02:40;97356.84;;;17.02;65.03
48216;BME280;34005;48.844;10.098;2022-07-12T01:05:08;97361.91;;;17.04;65.24
48216;BME280;34005;48.844;10.098;2022-07-12T01:07:37;97362.09;;;17.09;65.79
48216;BME280;34005;48.844;10.098;2022-07-12T01:10:07;97346.91;;;17.11;65.24
48216;BME280;34005;48.844;10.098;2022-07-12T01:12:36;97353.19;;;17.10;65.04
48216;BME280;34005;48.844;10.098;2022-07-12T01:15:05;97356.44;;;17.05;65.14
48216;BME280;34005;48.844;10.098;2022-07-12T01:17:33;97349.13;;;17.01;65.33
48216;BME280;34005;48.844;10.098;2022-07-12T01:20:03;97351.16;;;16.99;65.12
48216;BME280;34005;48.844;10.098;2022-07-12T01:22:34;97345.69;;;17.00;65.68
48216;BME280;34005;48.844;10.098;2022-07-12T01:25:04;97346.09;;;17.04;66.07
48216;BME280;34005;48.844;10.098;2022-07-12T01:27:33;97344.06;;;17.06;65.84
48216;BME280;34005;48.844;10.098;2022-07-12T01:30:01;97347.94;;;17.03;65.49
48216;BME280;34005;48.844;10.098;2022-07-12T01:32:29;97352.38;;;17.03;65.53
48216;BME280;34005;48.844;10.098;2022-07-12T01:35:01;97348.94;;;17.02;65.87
48216;BME280;34005;48.844;10.098;2022-07-12T01:37:30;97351.19;;;17.05;66.98
48216;BME280;34005;48.844;10.098;2022-07-12T01:40:01;97354.00;;;17.04;65.53
48216;BME280;34005;48.844;10.098;2022-07-12T01:42:30;97352.19;;;16.98;65.57
48216;BME280;34005;48.844;10.098;2022-07-12T01:44:58;97357.28;;;16.93;65.54
48216;BME280;34005;48.844;10.098;2022-07-12T01:47:28;97353.59;;;16.87;65.70
48216;BME280;34005;48.844;10.098;2022-07-12T01:49:56;97356.44;;;16.85;65.88
48216;BME280;34005;48.844;10.098;2022-07-12T01:52:24;97365.19;;;16.86;66.14
48216;BME280;34005;48.844;10.098;2022-07-12T01:54:52;97349.97;;;16.88;66.94
48216;BME280;34005;48.844;10.098;2022-07-12T01:57:20;97357.28;;;16.93;67.90
48216;BME280;34005;48.844;10.098;2022-07-12T01:59:50;97357.66;;;16.96;68.35
48216;BME280;34005;48.844;10.098;2022-07-12T02:02:17;97357.47;;;16.98;67.22
48216;BME280;34005;48.844;10.098;2022-07-12T02:04:45;97354.81;;;16.98;67.63
48216;BME280;34005;48.844;10.098;2022-07-12T02:07:13;97359.06;;;16.99;67.70
48216;BME280;34005;48.844;10.098;2022-07-12T02:09:40;97359.69;;;17.01;67.29
48216;BME280;34005;48.844;10.098;2022-07-12T02:12:08;97357.66;;;16.96;66.33
48216;BME280;34005;48.844;10.098;2022-07-12T02:14:36;97352.00;;;16.93;66.15
48216;BME280;34005;48.844;10.098;2022-07-12T02:17:05;97356.06;;;16.88;66.22
48216;BME280;34005;48.844;10.098;2022-07-12T02:19:32;97355.44;;;16.86;66.06
48216;BME280;34005;48.844;10.098;2022-07-12T02:22:00;97358.47;;;16.83;66.08
48216;BME280;34005;48.844;10.098;2022-07-12T02:24:27;97355.44;;;16.80;65.96
48216;BME280;34005;48.844;10.098;2022-07-12T02:26:55;97355.00;;;16.76;66.24
48216;BME280;34005;48.844;10.098;2022-07-12T02:29:22;97355.41;;;16.73;66.10
48216;BME280;34005;48.844;10.098;2022-07-12T02:31:50;97350.34;;;16.72;66.30
48216;BME280;34005;48.844;10.098;2022-07-12T02:34:19;97358.03;;;16.73;66.11
48216;BME280;34005;48.844;10.098;2022-07-12T02:36:46;97352.34;;;16.69;66.06
48216;BME280;34005;48.844;10.098;2022-07-12T02:39:14;97349.13;;;16.67;65.97
48216;BME280;34005;48.844;10.098;2022-07-12T02:41:42;97349.91;;;16.68;66.23
48216;BME280;34005;48.844;10.098;2022-07-12T02:44:09;97347.69;;;16.65;66.14
48216;BME280;34005;48.844;10.098;2022-07-12T02:46:37;97350.13;;;16.60;66.41
48216;BME280;34005;48.844;10.098;2022-07-12T02:49:05;97343.03;;;16.54;66.59
48216;BME280;34005;48.844;10.098;2022-07-12T02:51:33;97342.63;;;16.50;66.59
48216;BME280;34005;48.844;10.098;2022-07-12T02:54:01;97351.72;;;16.47;66.61
48216;BME280;34005;48.844;10.098;2022-07-12T02:56:29;97339.59;;;16.46;66.74
48216;BME280;34005;48.844;10.098;2022-07-12T02:58:56;97347.50;;;16.46;66.66
48216;BME280;34005;48.844;10.098;2022-07-12T03:01:24;97346.47;;;16.47;66.92
48216;BME280;34005;48.844;10.098;2022-07-12T03:03:51;97349.72;;;16.50;67.16
48216;BME280;34005;48.844;10.098;2022-07-12T03:06:19;97347.28;;;16.48;66.61
48216;BME280;34005;48.844;10.098;2022-07-12T03:08:48;97344.25;;;16.44;66.45
48216;BME280;34005;48.844;10.098;2022-07-12T03:11:16;97350.50;;;16.43;66.53
48216;BME280;34005;48.844;10.098;2022-07-12T03:13:44;97351.31;;;16.44;67.43
48216;BME280;34005;48.844;10.098;2022-07-12T03:16:11;97348.06;;;16.48;67.32
48216;BME280;34005;48.844;10.098;2022-07-12T03:18:39;97350.13;;;16.46;66.62
48216;BME280;34005;48.844;10.098;2022-07-12T03:21:08;97354.34;;;16.41;66.31
48216;BME280;34005;48.844;10.098;2022-07-12T03:23:35;97353.31;;;16.35;66.41
48216;BME280;34005;48.844;10.098;2022-07-12T03:26:06;97363.47;;;16.32;66.50
48216;BME280;34005;48.844;10.098;2022-07-12T03:28:34;97357.78;;;16.28;66.63
48216;BME280;34005;48.844;10.098;2022-07-12T03:31:01;97358.38;;;16.30;67.36
48216;BME280;34005;48.844;10.098;2022-07-12T03:33:29;97362.06;;;16.36;68.14
48216;BME280;34005;48.844;10.098;2022-07-12T03:36:02;97375.41;;;16.34;66.85
48216;BME280;34005;48.844;10.098;2022-07-12T03:38:33;97363.03;;;16.28;66.60
48216;BME280;34005;48.844;10.098;2022-07-12T03:41:01;97373.56;;;16.21;66.35
48216;BME280;34005;48.844;10.098;2022-07-12T03:43:32;97378.38;;;16.11;66.38
48216;BME280;34005;48.844;10.098;2022-07-12T03:46:00;97372.47;;;16.02;66.37
48216;BME280;34005;48.844;10.098;2022-07-12T03:48:28;97375.91;;;15.96;66.68
48216;BME280;34005;48.844;10.098;2022-07-12T03:50:55;97381.75;;;15.92;66.80
48216;BME280;34005;48.844;10.098;2022-07-12T03:53:23;97377.69;;;15.89;66.96
48216;BME280;34005;48.844;10.098;2022-07-12T03:55:50;97383.97;;;15.88;66.99
48216;BME280;34005;48.844;10.098;2022-07-12T03:58:18;97381.72;;;15.85;67.01
48216;BME280;34005;48.844;10.098;2022-07-12T04:00:47;97387.78;;;15.79;67.13
48216;BME280;34005;48.844;10.098;2022-07-12T04:03:14;97387.75;;;15.72;67.03
48216;BME280;34005;48.844;10.098;2022-07-12T04:05:42;97395.34;;;15.67;67.10
48216;BME280;34005;48.844;10.098;2022-07-12T04:08:09;97386.22;;;15.63;67.46
48216;BME280;34005;48.844;10.098;2022-07-12T04:10:37;97386.81;;;15.58;67.37
48216;BME280;34005;48.844;10.098;2022-07-12T04:13:04;97391.44;;;15.56;67.67
48216;BME280;34005;48.844;10.098;2022-07-12T04:15:32;97387.22;;;15.55;67.70
48216;BME280;34005;48.844;10.098;2022-07-12T04:18:01;97392.84;;;15.52;67.86
48216;BME280;34005;48.844;10.098;2022-07-12T04:20:29;97384.34;;;15.50;67.84
48216;BME280;34005;48.844;10.098;2022-07-12T04:22:56;97396.88;;;15.48;67.79
48216;BME280;34005;48.844;10.098;2022-07-12T04:25:24;97386.75;;;15.45;67.98
48216;BME280;34005;48.844;10.098;2022-07-12T04:27:52;97392.41;;;15.42;68.00
48216;BME280;34005;48.844;10.098;2022-07-12T04:30:21;97392.75;;;15.39;68.21
48216;BME280;34005;48.844;10.098;2022-07-12T04:32:49;97397.41;;;15.37;68.18
48216;BME280;34005;48.844;10.098;2022-07-12T04:35:18;97403.28;;;15.39;68.58
48216;BME280;34005;48.844;10.098;2022-07-12T04:37:46;97404.91;;;15.40;68.75
48216;BME280;34005;48.844;10.098;2022-07-12T04:40:13;97405.31;;;15.43;68.40
48216;BME280;34005;48.844;10.098;2022-07-12T04:42:41;97401.31;;;15.48;68.42
48216;BME280;34005;48.844;10.098;2022-07-12T04:45:08;97405.19;;;15.52;68.47
48216;BME280;34005;48.844;10.098;2022-07-12T04:47:36;97411.88;;;15.54;68.38
48216;BME280;34005;48.844;10.098;2022-07-12T04:50:05;97408.88;;;15.57;68.28
48216;BME280;34005;48.844;10.098;2022-07-12T04:52:34;97417.38;;;15.59;68.18
48216;BME280;34005;48.844;10.098;2022-07-12T04:55:02;97418.00;;;15.61;68.15
48216;BME280;34005;48.844;10.098;2022-07-12T04:57:30;97420.22;;;15.64;68.14
48216;BME280;34005;48.844;10.098;2022-07-12T04:59:57;97417.19;;;15.68;67.97
48216;BME280;34005;48.844;10.098;2022-07-12T05:02:25;97424.91;;;15.69;67.86
48216;BME280;34005;48.844;10.098;2022-07-12T05:04:53;97427.34;;;15.71;68.21
48216;BME280;34005;48.844;10.098;2022-07-12T05:07:20;97416.47;;;15.74;68.31
48216;BME280;34005;48.844;10.098;2022-07-12T05:09:49;97420.78;;;15.81;69.38
48216;BME280;34005;48.844;10.098;2022-07-12T05:12:17;97427.50;;;15.91;69.21
48216;BME280;34005;48.844;10.098;2022-07-12T05:14:45;97430.75;;;15.99;68.80
48216;BME280;34005;48.844;10.098;2022-07-12T05:17:12;97423.72;;;16.06;68.33
48216;BME280;34005;48.844;10.098;2022-07-12T05:19:40;97413.78;;;16.09;67.96
48216;BME280;34005;48.844;10.098;2022-07-12T05:22:08;97426.75;;;16.10;67.83
48216;BME280;34005;48.844;10.098;2022-07-12T05:24:35;97424.56;;;16.14;67.90
48216;BME280;34005;48.844;10.098;2022-07-12T05:27:04;97426.78;;;16.17;68.12
48216;BME280;34005;48.844;10.098;2022-07-12T05:29:33;97433.91;;;16.23;68.24
48216;BME280;34005;48.844;10.098;2022-07-12T05:32:00;97434.13;;;16.28;67.92
48216;BME280;34005;48.844;10.098;2022-07-12T05:34:36;97430.50;;;16.36;68.77
48216;BME280;34005;48.844;10.098;2022-07-12T05:37:04;97430.31;;;16.44;69.41
48216;BME280;34005;48.844;10.098;2022-07-12T05:39:32;97430.94;;;16.53;69.68
48216;BME280;34005;48.844;10.098;2022-07-12T05:41:59;97437.06;;;16.60;69.74
48216;BME280;34005;48.844;10.098;2022-07-12T05:44:28;97436.66;;;16.63;68.46
48216;BME280;34005;48.844;10.098;2022-07-12T05:46:56;97433.81;;;16.64;68.20
48216;BME280;34005;48.844;10.098;2022-07-12T05:49:23;97438.69;;;16.67;67.62
48216;BME280;34005;48.844;10.098;2022-07-12T05:51:51;97435.06;;;16.68;67.49
48216;BME280;34005;48.844;10.098;2022-07-12T05:54:36;97436.84;;;16.75;68.91
48216;BME280;34005;48.844;10.098;2022-07-12T05:57:04;97437.94;;;16.80;68.06
48216;BME280;34005;48.844;10.098;2022-07-12T05:59:35;97452.94;;;16.86;69.44
48216;BME280;34005;48.844;10.098;2022-07-12T06:02:03;97441.00;;;16.91;69.38
48216;BME280;34005;48.844;10.098;2022-07-12T06:04:31;97438.56;;;16.96;69.75
48216;BME280;34005;48.844;10.098;2022-07-12T06:06:58;97444.25;;;16.99;69.60
48216;BME280;34005;48.844;10.098;2022-07-12T06:09:26;97449.91;;;17.03;69.51
48216;BME280;34005;48.844;10.098;2022-07-12T06:11:54;97448.50;;;17.07;67.99
48216;BME280;34005;48.844;10.098;2022-07-12T06:14:21;97452.53;;;17.09;67.38
48216;BME280;34005;48.844;10.098;2022-07-12T06:16:50;97450.94;;;17.15;67.58
48216;BME280;34005;48.844;10.098;2022-07-12T06:19:17;97453.75;;;17.20;68.23
48216;BME280;34005;48.844;10.098;2022-07-12T06:21:45;97452.34;;;17.24;68.32
48216;BME280;34005;48.844;10.098;2022-07-12T06:24:12;97450.13;;;17.28;66.82
48216;BME280;34005;48.844;10.098;2022-07-12T06:26:40;97448.91;;;17.30;67.29
48216;BME280;34005;48.844;10.098;2022-07-12T06:29:07;97446.44;;;17.36;66.90
48216;BME280;34005;48.844;10.098;2022-07-12T06:31:35;97449.50;;;17.39;66.70
48216;BME280;34005;48.844;10.098;2022-07-12T06:34:04;97454.78;;;17.46;67.11
48216;BME280;34005;48.844;10.098;2022-07-12T06:36:31;97454.97;;;17.51;67.84
48216;BME280;34005;48.844;10.098;2022-07-12T06:38:59;97452.53;;;17.56;66.71
48216;BME280;34005;48.844;10.098;2022-07-12T06:41:26;97454.56;;;17.61;66.58
48216;BME280;34005;48.844;10.098;2022-07-12T06:49:43;97461.44;;;17.82;65.74
48216;BME280;34005;48.844;10.098;2022-07-12T08:06:22;97498.13;;;19.82;54.53
48216;BME280;34005;48.844;10.098;2022-07-12T08:08:50;97505.00;;;19.90;54.32
48216;BME280;34005;48.844;10.098;2022-07-12T08:11:37;97500.22;;;19.99;54.63
48216;BME280;34005;48.844;10.098;2022-07-12T08:14:06;97507.66;;;20.08;53.11
48216;BME280;34005;48.844;10.098;2022-07-12T08:16:34;97492.06;;;20.19;53.71
48216;BME280;34005;48.844;10.098;2022-07-12T08:19:02;97491.53;;;20.28;52.60
48216;BME280;34005;48.844;10.098;2022-07-12T08:21:35;97497.78;;;20.34;51.78
48216;BME280;34005;48.844;10.098;2022-07-12T08:24:09;97497.56;;;20.35;50.85
48216;BME280;34005;48.844;10.098;2022-07-12T08:26:41;97498.13;;;20.37;50.67
48216;BME280;34005;48.844;10.098;2022-07-12T08:29:32;97504.03;;;20.40;50.12
48216;BME280;34005;48.844;10.098;2022-07-12T08:32:18;97496.66;;;20.42;50.25
48216;BME280;34005;48.844;10.098;2022-07-12T08:34:51;97493.13;;;20.48;50.76
48216;BME280;34005;48.844;10.098;2022-07-12T08:37:52;97494.69;;;20.55;50.69
48216;BME280;34005;48.844;10.098;2022-07-12T08:40:24;97494.84;;;20.61;50.51
48216;BME280;34005;48.844;10.098;2022-07-12T08:42:57;97494.75;;;20.67;50.74
48216;BME280;34005;48.844;10.098;2022-07-12T08:45:31;97489.34;;;20.74;50.14
48216;BME280;34005;48.844;10.098;2022-07-12T08:48:01;97491.13;;;20.80;50.42
48216;BME280;34005;48.844;10.098;2022-07-12T08:50:35;97496.09;;;20.88;49.93
48216;BME280;34005;48.844;10.098;2022-07-12T08:53:13;97492.22;;;21.03;49.64
48216;BME280;34005;48.844;10.098;2022-07-12T08:55:50;97488.78;;;21.14;49.21
48216;BME280;34005;48.844;10.098;2022-07-12T08:58:23;97498.47;;;21.20;49.45
48216;BME280;34005;48.844;10.098;2022-07-12T09:01:06;97502.53;;;21.23;48.88
48216;BME280;34005;48.844;10.098;2022-07-12T09:03:40;97506.56;;;21.25;48.32
48216;BME280;34005;48.844;10.098;2022-07-12T09:06:12;97508.19;;;21.26;48.51
48216;BME280;34005;48.844;10.098;2022-07-12T09:08:47;97507.16;;;21.27;48.68
48216;BME280;34005;48.844;10.098;2022-07-12T09:11:21;97508.78;;;21.28;48.96
48216;BME280;34005;48.844;10.098;2022-07-12T09:13:53;97505.91;;;21.30;48.49
48216;BME280;34005;48.844;10.098;2022-07-12T09:16:25;97510.97;;;21.31;48.32
48216;BME280;34005;48.844;10.098;2022-07-12T09:19:13;97515.38;;;21.37;49.37
48216;BME280;34005;48.844;10.098;2022-07-12T09:21:50;97520.50;;;21.51;48.93
48216;BME280;34005;48.844;10.098;2022-07-12T09:24:24;97510.91;;;21.62;48.47
48216;BME280;34005;48.844;10.098;2022-07-12T09:26:57;97507.13;;;21.69;48.31
48216;BME280;34005;48.844;10.098;2022-07-12T09:29:30;97502.28;;;21.78;48.02
48216;BME280;34005;48.844;10.098;2022-07-12T09:32:06;97504.00;;;21.84;47.41
48216;BME280;34005;48.844;10.098;2022-07-12T09:35:00;97507.56;;;21.90;47.59
48216;BME280;34005;48.844;10.098;2022-07-12T09:37:50;97508.16;;;21.92;47.06
48216;BME280;34005;48.844;10.098;2022-07-12T09:40:22;97507.09;;;21.93;47.05
48216;BME280;34005;48.844;10.098;2022-07-12T09:42:52;97513.00;;;21.95;46.74
48216;BME280;34005;48.844;10.098;2022-07-12T09:45:22;97511.97;;;21.96;47.02
48216;BME280;34005;48.844;10.098;2022-07-12T09:47:52;97517.59;;;21.99;46.96
48216;BME280;34005;48.844;10.098;2022-07-12T09:50:22;97510.34;;;22.07;46.96
48216;BME280;34005;48.844;10.098;2022-07-12T09:52:54;97517.25;;;22.19;47.90
48216;BME280;34005;48.844;10.098;2022-07-12T09:55:35;97514.59;;;22.31;46.23
48216;BME280;34005;48.844;10.098;2022-07-12T09:58:15;97509.03;;;22.45;46.78
48216;BME280;34005;48.844;10.098;2022-07-12T10:00:59;97510.03;;;22.55;47.02
48216;BME280;34005;48.844;10.098;2022-07-12T10:03:46;97512.78;;;22.60;46.25
48216;BME280;34005;48.844;10.098;2022-07-12T10:06:30;97508.94;;;22.68;47.00
48216;BME280;34005;48.844;10.098;2022-07-12T10:09:13;97518.38;;;22.76;45.43
48216;BME280;34005;48.844;10.098;2022-07-12T10:11:44;97519.78;;;22.78;45.32
48216;BME280;34005;48.844;10.098;2022-07-12T10:14:34;97508.44;;;22.83;45.08
48216;BME280;34005;48.844;10.098;2022-07-12T10:17:07;97505.50;;;22.84;44.77
48216;BME280;34005;48.844;10.098;2022-07-12T10:19:37;97504.50;;;22.86;44.26
48216;BME280;34005;48.844;10.098;2022-07-12T10:22:06;97504.00;;;22.89;45.07
48216;BME280;34005;48.844;10.098;2022-07-12T10:24:47;97506.28;;;22.97;44.31
48216;BME280;34005;48.844;10.098;2022-07-12T10:27:33;97502.94;;;23.01;45.04
48216;BME280;34005;48.844;10.098;2022-07-12T10:30:15;97500.84;;;23.03;45.26
48216;BME280;34005;48.844;10.098;2022-07-12T10:32:44;97504.06;;;23.06;44.59
48216;BME280;34005;48.844;10.098;2022-07-12T10:35:13;97495.50;;;23.03;44.44
48216;BME280;34005;48.844;10.098;2022-07-12T10:37:41;97495.84;;;23.07;44.48
48216;BME280;34005;48.844;10.098;2022-07-12T10:40:33;97499.09;;;23.09;44.31
48216;BME280;34005;48.844;10.098;2022-07-12T10:43:29;97495.38;;;23.10;44.65
48216;BME280;34005;48.844;10.098;2022-07-12T10:46:23;97494.06;;;23.13;44.27
48216;BME280;34005;48.844;10.098;2022-07-12T10:49:24;97499.25;;;23.19;44.71
48216;BME280;34005;48.844;10.098;2022-07-12T10:52:15;97491.66;;;23.28;44.52
48216;BME280;34005;48.844;10.098;2022-07-12T10:54:47;97488.59;;;23.36;43.96
48216;BME280;34005;48.844;10.098;2022-07-12T10:57:38;97496.19;;;23.44;44.02
48216;BME280;34005;48.844;10.098;2022-07-12T11:00:08;97498.94;;;23.50;43.74
48216;BME280;34005;48.844;10.098;2022-07-12T11:02:36;97496.84;;;23.52;43.15
48216;BME280;34005;48.844;10.098;2022-07-12T11:05:05;97488.13;;;23.56;43.80
48216;BME280;34005;48.844;10.098;2022-07-12T11:07:33;97490.88;;;23.61;43.36
48216;BME280;34005;48.844;10.098;2022-07-12T11:10:00;97490.38;;;23.64;42.51
48216;BME280;34005;48.844;10.098;2022-07-12T11:12:28;97489.06;;;23.67;41.97
48216;BME280;34005;48.844;10.098;2022-07-12T11:14:58;97482.44;;;23.70;41.22
48216;BME280;34005;48.844;10.098;2022-07-12T11:17:29;97486.03;;;23.75;42.11
48216;BME280;34005;48.844;10.098;2022-07-12T11:20:05;97486.66;;;23.82;42.62
48216;BME280;34005;48.844;10.098;2022-07-12T11:22:35;97481.66;;;23.86;42.03
48216;BME280;34005;48.844;10.098;2022-07-12T11:25:04;97480.34;;;23.89;41.67
48216;BME280;34005;48.844;10.098;2022-07-12T11:27:37;97476.63;;;23.90;41.85
48216;BME280;34005;48.844;10.098;2022-07-12T11:30:07;97478.25;;;23.91;41.45
48216;BME280;34005;48.844;10.098;2022-07-12T11:32:37;97471.84;;;23.92;41.98
48216;BME280;34005;48.844;10.098;2022-07-12T11:35:19;97478.88;;;23.98;42.31
48216;BME280;34005;48.844;10.098;2022-07-12T11:37:48;97477.91;;;24.04;42.07
48216;BME280;34005;48.844;10.098;2022-07-12T11:40:21;97472.63;;;24.09;42.02
48216;BME280;34005;48.844;10.098;2022-07-12T11:42:53;97477.22;;;24.14;41.57
48216;BME280;34005;48.844;10.098;2022-07-12T11:45:21;97475.94;;;24.16;41.03
48216;BME280;34005;48.844;10.098;2022-07-12T11:47:50;97472.19;;;24.17;41.51
48216;BME280;34005;48.844;10.098;2022-07-12T11:50:18;97475.97;;;24.21;41.47
48216;BME280;34005;48.844;10.098;2022-07-12T11:52:46;97465.63;;;24.25;41.36
48216;BME280;34005;48.844;10.098;2022-07-12T11:55:14;97467.28;;;24.31;42.03
48216;BME280;34005;48.844;10.098;2022-07-12T11:57:42;97464.94;;;24.35;40.78
48216;BME280;34005;48.844;10.098;2022-07-12T12:00:17;97465.50;;;24.37;40.62
48216;BME280;34005;48.844;10.098;2022-07-12T12:02:46;97465.00;;;24.40;40.35
48216;BME280;34005;48.844;10.098;2022-07-12T12:05:16;97469.53;;;24.39;39.76
48216;BME280;34005;48.844;10.098;2022-07-12T12:07:44;97473.25;;;24.38;40.56
48216;BME280;34005;48.844;10.098;2022-07-12T12:10:18;97466.06;;;24.39;41.39
48216;BME280;34005;48.844;10.098;2022-07-12T12:12:47;97467.66;;;24.40;40.59
48216;BME280;34005;48.844;10.098;2022-07-12T12:15:18;97474.91;;;24.44;40.48
48216;BME280;34005;48.844;10.098;2022-07-12T12:17:51;97472.59;;;24.48;40.52
48216;BME280;34005;48.844;10.098;2022-07-12T12:20:22;97470.47;;;24.50;38.51
48216;BME280;34005;48.844;10.098;2022-07-12T12:22:51;97469.16;;;24.53;38.94
48216;BME280;34005;48.844;10.098;2022-07-12T12:25:20;97458.81;;;24.56;38.95
48216;BME280;34005;48.844;10.098;2022-07-12T12:27:53;97461.53;;;24.61;38.94
48216;BME280;34005;48.844;10.098;2022-07-12T12:30:48;97451.97;;;24.65;39.76
48216;BME280;34005;48.844;10.098;2022-07-12T12:33:35;97456.25;;;24.66;39.48
48216;BME280;34005;48.844;10.098;2022-07-12T12:36:15;97446.94;;;24.69;39.24
48216;BME280;34005;48.844;10.098;2022-07-12T12:38:45;97449.34;;;24.71;39.37
48216;BME280;34005;48.844;10.098;2022-07-12T12:41:13;97439.97;;;24.68;39.05
48216;BME280;34005;48.844;10.098;2022-07-12T12:43:41;97447.19;;;24.67;39.50
48216;BME280;34005;48.844;10.098;2022-07-12T12:46:09;97437.06;;;24.70;39.25
48216;BME280;34005;48.844;10.098;2022-07-12T12:48:46;97434.97;;;24.72;39.08
48216;BME280;34005;48.844;10.098;2022-07-12T12:51:15;97436.00;;;24.71;39.15
48216;BME280;34005;48.844;10.098;2022-07-12T12:53:43;97433.88;;;24.73;39.29
48216;BME280;34005;48.844;10.098;2022-07-12T12:56:12;97436.06;;;24.76;38.80
48216;BME280;34005;48.844;10.098;2022-07-12T12:58:41;97435.00;;;24.77;38.63
48216;BME280;34005;48.844;10.098;2022-07-12T13:01:09;97443.31;;;24.80;38.91
48216;BME280;34005;48.844;10.098;2022-07-12T13:03:37;97440.13;;;24.83;39.03
48216;BME280;34005;48.844;10.098;2022-07-12T13:06:04;97436.66;;;24.83;38.31
48216;BME280;34005;48.844;10.098;2022-07-12T13:08:33;97432.41;;;24.82;37.94
48216;BME280;34005;48.844;10.098;2022-07-12T13:11:01;97440.88;;;24.79;39.09
48216;BME280;34005;48.844;10.098;2022-07-12T13:13:48;97437.19;;;24.80;39.12
48216;BME280;34005;48.844;10.098;2022-07-12T13:16:16;97439.56;;;24.81;38.78
48216;BME280;34005;48.844;10.098;2022-07-12T13:18:44;97440.41;;;24.82;38.37
48216;BME280;34005;48.844;10.098;2022-07-12T13:21:11;97439.09;;;24.84;38.47
48216;BME280;34005;48.844;10.098;2022-07-12T13:23:40;97440.69;;;24.85;37.79
48216;BME280;34005;48.844;10.098;2022-07-12T13:26:08;97436.16;;;24.86;37.63
48216;BME280;34005;48.844;10.098;2022-07-12T13:28:36;97415.88;;;24.85;37.83
48216;BME280;34005;48.844;10.098;2022-07-12T13:31:04;97443.09;;;24.87;36.98
48216;BME280;34005;48.844;10.098;2022-07-12T13:33:31;97429.53;;;24.88;36.82
48216;BME280;34005;48.844;10.098;2022-07-12T13:35:59;97437.81;;;24.92;37.13
48216;BME280;34005;48.844;10.098;2022-07-12T13:38:26;97444.50;;;24.95;36.77
48216;BME280;34005;48.844;10.098;2022-07-12T13:40:55;97437.03;;;24.97;36.76
48216;BME280;34005;48.844;10.098;2022-07-12T13:43:23;97439.47;;;24.98;36.73
48216;BME280;34005;48.844;10.098;2022-07-12T13:45:51;97436.56;;;25.00;36.18
48216;BME280;34005;48.844;10.098;2022-07-12T13:48:18;97442.69;;;25.00;36.10
48216;BME280;34005;48.844;10.098;2022-07-12T13:50:46;97436.28;;;25.01;35.44
48216;BME280;34005;48.844;10.098;2022-07-12T13:53:34;97441.38;;;25.03;35.54
48216;BME280;34005;48.844;10.098;2022-07-12T13:56:03;97431.25;;;25.05;35.58
48216;BME280;34005;48.844;10.098;2022-07-12T13:58:31;97442.47;;;25.07;35.87
48216;BME280;34005;48.844;10.098;2022-07-12T14:00:59;97440.34;;;25.09;35.24
48216;BME280;34005;48.844;10.098;2022-07-12T14:03:27;97448.38;;;25.09;34.73
48216;BME280;34005;48.844;10.098;2022-07-12T14:05:54;97439.56;;;25.08;34.75
48216;BME280;34005;48.844;10.098;2022-07-12T14:08:22;97431.78;;;25.07;34.62
48216;BME280;34005;48.844;10.098;2022-07-12T14:10:49;97430.19;;;25.06;35.35
48216;BME280;34005;48.844;10.098;2022-07-12T14:13:18;97429.69;;;25.09;35.17
48216;BME280;34005;48.844;10.098;2022-07-12T14:15:46;97430.47;;;25.09;35.32
48216;BME280;34005;48.844;10.098;2022-07-12T14:18:14;97425.41;;;25.08;34.52
48216;BME280;34005;48.844;10.098;2022-07-12T14:20:44;97421.69;;;25.09;34.28
48216;BME280;34005;48.844;10.098;2022-07-12T14:23:11;97416.09;;;25.11;34.14
48216;BME280;34005;48.844;10.098;2022-07-12T14:25:40;97417.69;;;25.12;34.00
48216;BME280;34005;48.844;10.098;2022-07-12T14:28:07;97420.91;;;25.14;34.16